sensor_id;sensor_type;location;lat;lon;timestamp;P1;durP1;ratioP1;P2;durP2;ratioP2
70433;SDS011;57876;47.792;12.960;2022-07-04T00:01:23;6.18;;;2.60;;
70433;SDS011;57876;47.792;12.960;2022-07-04T00:03:47;5.47;;;2.57;;
70433;SDS011;57876;47.792;12.960;2022-07-04T00:06:12;6.07;;;2.43;;
70433;SDS011;57876;47.792;12.960;2022-07-04T00:08:36;5.10;;;2.43;;
70433;SDS011;57876;47.792;12.960;2022-07-04T00:11:00;5.20;;;2.20;;
70433;SDS011;57876;47.792;12.960;2022-07-04T00:13:25;5.70;;;2.23;;
70433;SDS011;57876;47.792;12.960;2022-07-04T00:15:49;5.30;;;2.27;;
70433;SDS011;57876;47.792;12.960;2022-07-04T00:18:13;5.47;;;2.33;;
70433;SDS011;57876;47.792;12.960;2022-07-04T00:20:38;5.53;;;2.40;;
70433;SDS011;57876;47.792;12.960;2022-07-04T00:23:02;6.07;;;2.27;;
70433;SDS011;57876;47.792;12.960;2022-07-04T00:25:27;5.20;;;2.27;;
70433;SDS011;57876;47.792;12.960;2022-07-04T00:27:51;5.22;;;2.20;;
70433;SDS011;57876;47.792;12.960;2022-07-04T00:30:15;5.17;;;2.30;;
70433;SDS011;57876;47.792;12.960;2022-07-04T00:32:40;5.30;;;2.30;;
70433;SDS011;57876;47.792;12.960;2022-07-04T00:35:05;5.33;;;2.43;;
70433;SDS011;57876;47.792;12.960;2022-07-04T00:37:30;5.60;;;2.40;;
70433;SDS011;57876;47.792;12.960;2022-07-04T00:39:54;5.93;;;2.50;;
70433;SDS011;57876;47.792;12.960;2022-07-04T00:42:19;5.32;;;2.28;;
70433;SDS011;57876;47.792;12.960;2022-07-04T00:44:43;5.50;;;2.20;;
70433;SDS011;57876;47.792;12.960;2022-07-04T00:47:08;5.93;;;2.17;;
70433;SDS011;57876;47.792;12.960;2022-07-04T00:49:32;5.70;;;2.30;;
70433;SDS011;57876;47.792;12.960;2022-07-04T00:51:57;5.43;;;2.17;;
70433;SDS011;57876;47.792;12.960;2022-07-04T00:54:25;5.35;;;2.20;;
70433;SDS011;57876;47.792;12.960;2022-07-04T00:56:51;5.22;;;2.13;;
70433;SDS011;57876;47.792;12.960;2022-07-04T00:59:18;5.40;;;2.47;;
70433;SDS011;57876;47.792;12.960;2022-07-04T01:01:42;4.93;;;2.03;;
70433;SDS011;57876;47.792;12.960;2022-07-04T01:04:06;5.40;;;2.40;;
70433;SDS011;57876;47.792;12.960;2022-07-04T01:06:31;5.33;;;2.27;;
70433;SDS011;57876;47.792;12.960;2022-07-04T01:08:57;6.32;;;2.38;;
70433;SDS011;57876;47.792;12.960;2022-07-04T01:11:22;5.90;;;2.45;;
70433;SDS011;57876;47.792;12.960;2022-07-04T01:13:46;5.60;;;2.13;;
70433;SDS011;57876;47.792;12.960;2022-07-04T01:16:10;5.60;;;2.37;;
70433;SDS011;57876;47.792;12.960;2022-07-04T01:18:36;5.60;;;2.42;;
70433;SDS011;57876;47.792;12.960;2022-07-04T01:21:01;5.90;;;2.45;;
70433;SDS011;57876;47.792;12.960;2022-07-04T01:23:25;5.43;;;2.20;;
70433;SDS011;57876;47.792;12.960;2022-07-04T01:25:50;5.70;;;2.40;;
70433;SDS011;57876;47.792;12.960;2022-07-04T01:28:15;5.30;;;2.40;;
70433;SDS011;57876;47.792;12.960;2022-07-04T01:30:40;6.25;;;2.30;;
70433;SDS011;57876;47.792;12.960;2022-07-04T01:33:04;5.17;;;2.00;;
70433;SDS011;57876;47.792;12.960;2022-07-04T01:35:29;5.53;;;2.33;;
70433;SDS011;57876;47.792;12.960;2022-07-04T01:37:53;6.05;;;2.45;;
70433;SDS011;57876;47.792;12.960;2022-07-04T01:40:18;5.30;;;2.20;;
70433;SDS011;57876;47.792;12.960;2022-07-04T01:42:42;5.70;;;2.20;;
70433;SDS011;57876;47.792;12.960;2022-07-04T01:45:08;6.10;;;2.30;;
70433;SDS011;57876;47.792;12.960;2022-07-04T01:47:33;5.60;;;2.40;;
70433;SDS011;57876;47.792;12.960;2022-07-04T01:49:57;5.60;;;2.30;;
70433;SDS011;57876;47.792;12.960;2022-07-04T01:52:22;5.10;;;2.30;;
70433;SDS011;57876;47.792;12.960;2022-07-04T01:54:46;5.67;;;2.50;;
70433;SDS011;57876;47.792;12.960;2022-07-04T01:57:11;5.73;;;2.40;;
70433;SDS011;57876;47.792;12.960;2022-07-04T01:59:36;5.20;;;2.40;;
70433;SDS011;57876;47.792;12.960;2022-07-04T02:02:19;5.43;;;2.10;;
70433;SDS011;57876;47.792;12.960;2022-07-04T02:04:44;5.43;;;2.37;;
70433;SDS011;57876;47.792;12.960;2022-07-04T02:07:08;5.80;;;2.50;;
70433;SDS011;57876;47.792;12.960;2022-07-04T02:09:33;5.30;;;2.40;;
70433;SDS011;57876;47.792;12.960;2022-07-04T02:11:57;5.78;;;2.50;;
70433;SDS011;57876;47.792;12.960;2022-07-04T02:14:40;5.00;;;2.40;;
70433;SDS011;57876;47.792;12.960;2022-07-04T02:17:05;5.75;;;2.33;;
70433;SDS011;57876;47.792;12.960;2022-07-04T02:19:30;5.67;;;2.20;;
70433;SDS011;57876;47.792;12.960;2022-07-04T02:21:54;5.20;;;2.38;;
70433;SDS011;57876;47.792;12.960;2022-07-04T02:24:19;5.70;;;2.50;;
70433;SDS011;57876;47.792;12.960;2022-07-04T02:26:43;5.50;;;2.17;;
70433;SDS011;57876;47.792;12.960;2022-07-04T02:29:07;5.80;;;2.40;;
70433;SDS011;57876;47.792;12.960;2022-07-04T02:31:32;5.78;;;2.55;;
70433;SDS011;57876;47.792;12.960;2022-07-04T02:33:56;5.63;;;2.30;;
70433;SDS011;57876;47.792;12.960;2022-07-04T02:36:22;5.60;;;2.43;;
70433;SDS011;57876;47.792;12.960;2022-07-04T02:38:46;6.13;;;2.30;;
70433;SDS011;57876;47.792;12.960;2022-07-04T02:41:11;5.10;;;2.47;;
70433;SDS011;57876;47.792;12.960;2022-07-04T02:43:35;5.70;;;2.20;;
70433;SDS011;57876;47.792;12.960;2022-07-04T02:46:01;5.22;;;2.22;;
70433;SDS011;57876;47.792;12.960;2022-07-04T02:48:25;5.33;;;2.43;;
70433;SDS011;57876;47.792;12.960;2022-07-04T02:50:49;5.83;;;2.30;;
70433;SDS011;57876;47.792;12.960;2022-07-04T02:53:14;6.00;;;2.40;;
70433;SDS011;57876;47.792;12.960;2022-07-04T02:55:38;5.67;;;2.20;;
70433;SDS011;57876;47.792;12.960;2022-07-04T02:58:02;4.97;;;1.93;;
70433;SDS011;57876;47.792;12.960;2022-07-04T03:00:28;5.70;;;2.38;;
70433;SDS011;57876;47.792;12.960;2022-07-04T03:02:55;5.10;;;2.03;;
70433;SDS011;57876;47.792;12.960;2022-07-04T03:05:20;5.78;;;2.10;;
70433;SDS011;57876;47.792;12.960;2022-07-04T03:07:44;5.30;;;2.30;;
70433;SDS011;57876;47.792;12.960;2022-07-04T03:10:09;5.25;;;2.10;;
70433;SDS011;57876;47.792;12.960;2022-07-04T03:12:33;5.70;;;2.10;;
70433;SDS011;57876;47.792;12.960;2022-07-04T03:14:58;5.17;;;2.00;;
70433;SDS011;57876;47.792;12.960;2022-07-04T03:17:23;4.95;;;2.10;;
70433;SDS011;57876;47.792;12.960;2022-07-04T03:19:47;5.23;;;2.00;;
70433;SDS011;57876;47.792;12.960;2022-07-04T03:22:11;6.50;;;2.20;;
70433;SDS011;57876;47.792;12.960;2022-07-04T03:24:36;5.43;;;2.20;;
70433;SDS011;57876;47.792;12.960;2022-07-04T03:27:00;6.03;;;2.20;;
70433;SDS011;57876;47.792;12.960;2022-07-04T03:29:25;6.43;;;2.07;;
70433;SDS011;57876;47.792;12.960;2022-07-04T03:31:49;5.50;;;2.00;;
70433;SDS011;57876;47.792;12.960;2022-07-04T03:34:14;5.00;;;2.07;;
70433;SDS011;57876;47.792;12.960;2022-07-04T03:36:38;5.47;;;2.47;;
70433;SDS011;57876;47.792;12.960;2022-07-04T03:39:03;5.53;;;2.07;;
70433;SDS011;57876;47.792;12.960;2022-07-04T03:41:27;5.10;;;2.20;;
70433;SDS011;57876;47.792;12.960;2022-07-04T03:43:52;4.90;;;2.20;;
70433;SDS011;57876;47.792;12.960;2022-07-04T03:46:16;5.97;;;2.03;;
70433;SDS011;57876;47.792;12.960;2022-07-04T03:48:40;6.50;;;2.23;;
70433;SDS011;57876;47.792;12.960;2022-07-04T03:51:07;5.03;;;1.90;;
70433;SDS011;57876;47.792;12.960;2022-07-04T03:53:31;5.50;;;2.10;;
70433;SDS011;57876;47.792;12.960;2022-07-04T03:55:56;5.37;;;2.03;;
70433;SDS011;57876;47.792;12.960;2022-07-04T03:58:20;5.85;;;2.20;;
70433;SDS011;57876;47.792;12.960;2022-07-04T04:00:44;5.13;;;2.30;;
70433;SDS011;57876;47.792;12.960;2022-07-04T04:03:09;5.50;;;2.13;;
70433;SDS011;57876;47.792;12.960;2022-07-04T04:05:53;6.27;;;2.40;;
70433;SDS011;57876;47.792;12.960;2022-07-04T04:08:18;6.10;;;2.17;;
70433;SDS011;57876;47.792;12.960;2022-07-04T04:10:43;5.50;;;2.17;;
70433;SDS011;57876;47.792;12.960;2022-07-04T04:13:07;4.95;;;2.00;;
70433;SDS011;57876;47.792;12.960;2022-07-04T04:15:31;5.10;;;2.10;;
70433;SDS011;57876;47.792;12.960;2022-07-04T04:17:56;5.10;;;2.10;;
70433;SDS011;57876;47.792;12.960;2022-07-04T04:20:20;5.37;;;2.20;;
70433;SDS011;57876;47.792;12.960;2022-07-04T04:22:44;5.53;;;2.30;;
70433;SDS011;57876;47.792;12.960;2022-07-04T04:25:09;6.50;;;2.70;;
70433;SDS011;57876;47.792;12.960;2022-07-04T04:27:33;5.83;;;2.00;;
70433;SDS011;57876;47.792;12.960;2022-07-04T04:29:58;5.23;;;2.17;;
70433;SDS011;57876;47.792;12.960;2022-07-04T04:32:22;5.90;;;2.43;;
70433;SDS011;57876;47.792;12.960;2022-07-04T04:34:47;5.20;;;2.10;;
70433;SDS011;57876;47.792;12.960;2022-07-04T04:37:11;5.77;;;2.10;;
70433;SDS011;57876;47.792;12.960;2022-07-04T04:39:36;5.75;;;2.22;;
70433;SDS011;57876;47.792;12.960;2022-07-04T04:42:00;6.10;;;2.50;;
70433;SDS011;57876;47.792;12.960;2022-07-04T04:44:25;5.93;;;2.27;;
70433;SDS011;57876;47.792;12.960;2022-07-04T04:46:49;5.93;;;2.10;;
70433;SDS011;57876;47.792;12.960;2022-07-04T04:49:14;5.40;;;2.20;;
70433;SDS011;57876;47.792;12.960;2022-07-04T04:51:38;4.90;;;1.80;;
70433;SDS011;57876;47.792;12.960;2022-07-04T04:54:04;5.28;;;2.03;;
70433;SDS011;57876;47.792;12.960;2022-07-04T04:56:28;5.87;;;2.10;;
70433;SDS011;57876;47.792;12.960;2022-07-04T04:58:53;5.60;;;2.30;;
70433;SDS011;57876;47.792;12.960;2022-07-04T05:01:17;5.82;;;2.47;;
70433;SDS011;57876;47.792;12.960;2022-07-04T05:03:42;7.13;;;2.17;;
70433;SDS011;57876;47.792;12.960;2022-07-04T05:06:07;5.23;;;2.10;;
70433;SDS011;57876;47.792;12.960;2022-07-04T05:08:31;6.32;;;2.25;;
70433;SDS011;57876;47.792;12.960;2022-07-04T05:10:55;5.60;;;2.10;;
70433;SDS011;57876;47.792;12.960;2022-07-04T05:13:20;6.10;;;2.20;;
70433;SDS011;57876;47.792;12.960;2022-07-04T05:15:45;5.13;;;2.17;;
70433;SDS011;57876;47.792;12.960;2022-07-04T05:18:10;6.32;;;2.20;;
70433;SDS011;57876;47.792;12.960;2022-07-04T05:20:34;5.13;;;2.03;;
70433;SDS011;57876;47.792;12.960;2022-07-04T05:22:59;5.40;;;2.20;;
70433;SDS011;57876;47.792;12.960;2022-07-04T05:25:23;6.17;;;2.03;;
70433;SDS011;57876;47.792;12.960;2022-07-04T05:27:48;5.20;;;2.00;;
70433;SDS011;57876;47.792;12.960;2022-07-04T05:30:12;5.40;;;2.30;;
70433;SDS011;57876;47.792;12.960;2022-07-04T05:32:40;5.40;;;2.30;;
70433;SDS011;57876;47.792;12.960;2022-07-04T05:35:04;4.97;;;2.00;;
70433;SDS011;57876;47.792;12.960;2022-07-04T05:37:29;5.20;;;2.13;;
70433;SDS011;57876;47.792;12.960;2022-07-04T05:39:53;5.40;;;2.10;;
70433;SDS011;57876;47.792;12.960;2022-07-04T05:42:18;6.20;;;2.20;;
70433;SDS011;57876;47.792;12.960;2022-07-04T05:44:42;5.70;;;2.23;;
70433;SDS011;57876;47.792;12.960;2022-07-04T05:47:07;6.20;;;2.30;;
70433;SDS011;57876;47.792;12.960;2022-07-04T05:49:31;5.90;;;2.00;;
70433;SDS011;57876;47.792;12.960;2022-07-04T05:51:56;5.40;;;2.20;;
70433;SDS011;57876;47.792;12.960;2022-07-04T05:54:20;5.00;;;2.10;;
70433;SDS011;57876;47.792;12.960;2022-07-04T05:56:45;5.60;;;2.10;;
70433;SDS011;57876;47.792;12.960;2022-07-04T05:59:09;5.40;;;2.20;;
70433;SDS011;57876;47.792;12.960;2022-07-04T06:01:33;5.40;;;2.10;;
70433;SDS011;57876;47.792;12.960;2022-07-04T06:03:58;5.00;;;2.00;;
70433;SDS011;57876;47.792;12.960;2022-07-04T06:06:22;5.87;;;2.40;;
70433;SDS011;57876;47.792;12.960;2022-07-04T06:08:47;5.97;;;2.30;;
70433;SDS011;57876;47.792;12.960;2022-07-04T06:11:11;5.45;;;2.35;;
70433;SDS011;57876;47.792;12.960;2022-07-04T06:13:35;5.30;;;2.20;;
70433;SDS011;57876;47.792;12.960;2022-07-04T06:16:00;5.17;;;2.27;;
70433;SDS011;57876;47.792;12.960;2022-07-04T06:18:24;5.27;;;2.20;;
70433;SDS011;57876;47.792;12.960;2022-07-04T06:20:49;6.22;;;2.45;;
70433;SDS011;57876;47.792;12.960;2022-07-04T06:23:13;5.37;;;2.20;;
70433;SDS011;57876;47.792;12.960;2022-07-04T06:25:38;5.13;;;2.00;;
70433;SDS011;57876;47.792;12.960;2022-07-04T06:28:02;4.87;;;1.90;;
70433;SDS011;57876;47.792;12.960;2022-07-04T06:30:27;5.07;;;2.00;;
70433;SDS011;57876;47.792;12.960;2022-07-04T06:32:52;6.47;;;1.90;;
70433;SDS011;57876;47.792;12.960;2022-07-04T06:35:19;5.78;;;2.20;;
70433;SDS011;57876;47.792;12.960;2022-07-04T06:38:04;5.25;;;2.00;;
70433;SDS011;57876;47.792;12.960;2022-07-04T06:40:28;5.20;;;2.00;;
70433;SDS011;57876;47.792;12.960;2022-07-04T06:42:53;5.17;;;2.13;;
70433;SDS011;57876;47.792;12.960;2022-07-04T06:45:17;5.53;;;2.00;;
70433;SDS011;57876;47.792;12.960;2022-07-04T06:47:42;6.00;;;1.90;;
70433;SDS011;57876;47.792;12.960;2022-07-04T06:50:06;5.20;;;2.03;;
70433;SDS011;57876;47.792;12.960;2022-07-04T06:52:31;5.47;;;1.95;;
70433;SDS011;57876;47.792;12.960;2022-07-04T06:54:56;5.77;;;2.20;;
70433;SDS011;57876;47.792;12.960;2022-07-04T06:57:20;5.38;;;1.95;;
70433;SDS011;57876;47.792;12.960;2022-07-04T06:59:45;4.90;;;2.00;;
70433;SDS011;57876;47.792;12.960;2022-07-04T07:02:09;5.80;;;2.00;;
70433;SDS011;57876;47.792;12.960;2022-07-04T07:04:33;5.17;;;1.93;;
70433;SDS011;57876;47.792;12.960;2022-07-04T07:06:58;5.45;;;2.30;;
70433;SDS011;57876;47.792;12.960;2022-07-04T07:09:22;4.70;;;1.77;;
70433;SDS011;57876;47.792;12.960;2022-07-04T07:11:47;6.07;;;2.00;;
70433;SDS011;57876;47.792;12.960;2022-07-04T07:14:11;5.50;;;1.93;;
70433;SDS011;57876;47.792;12.960;2022-07-04T07:16:35;5.00;;;2.20;;
70433;SDS011;57876;47.792;12.960;2022-07-04T07:19:00;5.50;;;2.23;;
70433;SDS011;57876;47.792;12.960;2022-07-04T07:21:24;5.50;;;2.00;;
70433;SDS011;57876;47.792;12.960;2022-07-04T07:23:48;4.97;;;2.03;;
70433;SDS011;57876;47.792;12.960;2022-07-04T07:26:13;5.90;;;2.20;;
70433;SDS011;57876;47.792;12.960;2022-07-04T07:28:38;5.67;;;2.00;;
70433;SDS011;57876;47.792;12.960;2022-07-04T07:31:02;5.05;;;2.22;;
70433;SDS011;57876;47.792;12.960;2022-07-04T07:33:27;5.60;;;2.17;;
70433;SDS011;57876;47.792;12.960;2022-07-04T07:35:51;5.53;;;2.10;;
70433;SDS011;57876;47.792;12.960;2022-07-04T07:38:16;5.27;;;2.10;;
70433;SDS011;57876;47.792;12.960;2022-07-04T07:40:40;5.83;;;2.07;;
70433;SDS011;57876;47.792;12.960;2022-07-04T07:43:05;5.67;;;2.30;;
70433;SDS011;57876;47.792;12.960;2022-07-04T07:45:29;5.55;;;2.38;;
70433;SDS011;57876;47.792;12.960;2022-07-04T07:47:53;5.17;;;2.10;;
70433;SDS011;57876;47.792;12.960;2022-07-04T07:50:18;5.20;;;2.03;;
70433;SDS011;57876;47.792;12.960;2022-07-04T07:52:42;5.53;;;2.07;;
70433;SDS011;57876;47.792;12.960;2022-07-04T07:55:07;5.20;;;2.30;;
70433;SDS011;57876;47.792;12.960;2022-07-04T07:57:31;6.03;;;2.00;;
70433;SDS011;57876;47.792;12.960;2022-07-04T07:59:56;5.83;;;2.23;;
70433;SDS011;57876;47.792;12.960;2022-07-04T08:02:20;5.30;;;2.22;;
70433;SDS011;57876;47.792;12.960;2022-07-04T08:05:05;5.43;;;2.10;;
70433;SDS011;57876;47.792;12.960;2022-07-04T08:07:30;5.30;;;2.10;;
70433;SDS011;57876;47.792;12.960;2022-07-04T08:09:54;5.20;;;2.10;;
70433;SDS011;57876;47.792;12.960;2022-07-04T08:12:19;4.78;;;1.95;;
70433;SDS011;57876;47.792;12.960;2022-07-04T08:14:43;5.77;;;2.50;;
70433;SDS011;57876;47.792;12.960;2022-07-04T08:17:07;5.00;;;2.20;;
70433;SDS011;57876;47.792;12.960;2022-07-04T08:19:35;5.68;;;2.00;;
70433;SDS011;57876;47.792;12.960;2022-07-04T08:21:59;4.80;;;1.90;;
70433;SDS011;57876;47.792;12.960;2022-07-04T08:24:23;4.90;;;2.03;;
70433;SDS011;57876;47.792;12.960;2022-07-04T08:26:48;5.13;;;1.97;;
70433;SDS011;57876;47.792;12.960;2022-07-04T08:29:12;5.40;;;2.23;;
70433;SDS011;57876;47.792;12.960;2022-07-04T08:31:41;5.30;;;1.88;;
70433;SDS011;57876;47.792;12.960;2022-07-04T08:34:06;5.47;;;2.10;;
70433;SDS011;57876;47.792;12.960;2022-07-04T08:36:30;6.22;;;2.28;;
70433;SDS011;57876;47.792;12.960;2022-07-04T08:38:54;5.70;;;2.13;;
70433;SDS011;57876;47.792;12.960;2022-07-04T08:41:19;4.90;;;1.90;;
70433;SDS011;57876;47.792;12.960;2022-07-04T08:43:44;4.87;;;1.97;;
70433;SDS011;57876;47.792;12.960;2022-07-04T08:46:11;4.97;;;1.92;;
70433;SDS011;57876;47.792;12.960;2022-07-04T08:48:37;5.28;;;2.22;;
70433;SDS011;57876;47.792;12.960;2022-07-04T08:51:04;5.38;;;2.03;;
70433;SDS011;57876;47.792;12.960;2022-07-04T08:53:40;4.95;;;2.03;;
70433;SDS011;57876;47.792;12.960;2022-07-04T08:56:14;5.30;;;1.83;;
70433;SDS011;57876;47.792;12.960;2022-07-04T08:58:57;4.93;;;1.95;;
70433;SDS011;57876;47.792;12.960;2022-07-04T09:01:22;5.38;;;2.03;;
70433;SDS011;57876;47.792;12.960;2022-07-04T09:03:48;4.97;;;2.08;;
70433;SDS011;57876;47.792;12.960;2022-07-04T09:06:14;5.50;;;2.10;;
70433;SDS011;57876;47.792;12.960;2022-07-04T09:08:39;5.07;;;2.20;;
70433;SDS011;57876;47.792;12.960;2022-07-04T09:11:04;4.80;;;2.10;;
70433;SDS011;57876;47.792;12.960;2022-07-04T09:13:29;5.55;;;2.00;;
70433;SDS011;57876;47.792;12.960;2022-07-04T09:15:54;5.25;;;2.10;;
70433;SDS011;57876;47.792;12.960;2022-07-04T09:18:19;5.83;;;2.23;;
70433;SDS011;57876;47.792;12.960;2022-07-04T09:20:44;5.03;;;2.10;;
70433;SDS011;57876;47.792;12.960;2022-07-04T09:23:16;5.10;;;2.10;;
70433;SDS011;57876;47.792;12.960;2022-07-04T09:25:44;5.30;;;2.03;;
70433;SDS011;57876;47.792;12.960;2022-07-04T09:28:09;5.00;;;2.00;;
70433;SDS011;57876;47.792;12.960;2022-07-04T09:30:33;4.50;;;1.73;;
70433;SDS011;57876;47.792;12.960;2022-07-04T09:32:58;5.10;;;2.20;;
70433;SDS011;57876;47.792;12.960;2022-07-04T09:35:27;5.10;;;1.95;;
70433;SDS011;57876;47.792;12.960;2022-07-04T09:37:57;6.05;;;2.15;;
70433;SDS011;57876;47.792;12.960;2022-07-04T09:40:27;5.00;;;2.03;;
70433;SDS011;57876;47.792;12.960;2022-07-04T09:42:56;5.05;;;1.92;;
70433;SDS011;57876;47.792;12.960;2022-07-04T09:45:25;5.25;;;2.17;;
70433;SDS011;57876;47.792;12.960;2022-07-04T09:47:51;5.20;;;2.00;;
70433;SDS011;57876;47.792;12.960;2022-07-04T09:50:19;4.97;;;2.00;;
70433;SDS011;57876;47.792;12.960;2022-07-04T09:52:45;5.00;;;1.80;;
70433;SDS011;57876;47.792;12.960;2022-07-04T09:55:10;5.03;;;2.00;;
70433;SDS011;57876;47.792;12.960;2022-07-04T09:57:34;5.20;;;1.93;;
70433;SDS011;57876;47.792;12.960;2022-07-04T10:02:53;4.83;;;1.73;;
70433;SDS011;57876;47.792;12.960;2022-07-04T10:05:19;4.80;;;1.90;;
70433;SDS011;57876;47.792;12.960;2022-07-04T10:07:45;4.78;;;1.80;;
70433;SDS011;57876;47.792;12.960;2022-07-04T10:10:28;4.90;;;1.70;;
70433;SDS011;57876;47.792;12.960;2022-07-04T10:13:02;4.40;;;1.63;;
70433;SDS011;57876;47.792;12.960;2022-07-04T10:15:28;4.70;;;1.70;;
70433;SDS011;57876;47.792;12.960;2022-07-04T10:17:53;4.90;;;1.98;;
70433;SDS011;57876;47.792;12.960;2022-07-04T10:20:17;4.97;;;1.87;;
70433;SDS011;57876;47.792;12.960;2022-07-04T10:22:42;4.70;;;1.80;;
70433;SDS011;57876;47.792;12.960;2022-07-04T10:25:08;5.00;;;1.60;;
70433;SDS011;57876;47.792;12.960;2022-07-04T10:27:33;4.78;;;1.95;;
70433;SDS011;57876;47.792;12.960;2022-07-04T10:29:58;4.97;;;1.80;;
70433;SDS011;57876;47.792;12.960;2022-07-04T10:32:24;4.65;;;1.60;;
70433;SDS011;57876;47.792;12.960;2022-07-04T10:34:49;5.23;;;1.80;;
70433;SDS011;57876;47.792;12.960;2022-07-04T10:37:14;4.90;;;1.80;;
70433;SDS011;57876;47.792;12.960;2022-07-04T10:39:38;6.00;;;1.80;;
70433;SDS011;57876;47.792;12.960;2022-07-04T10:42:04;5.18;;;1.83;;
70433;SDS011;57876;47.792;12.960;2022-07-04T10:44:30;4.63;;;1.80;;
70433;SDS011;57876;47.792;12.960;2022-07-04T10:47:01;5.00;;;1.70;;
70433;SDS011;57876;47.792;12.960;2022-07-04T10:49:26;4.50;;;1.70;;
70433;SDS011;57876;47.792;12.960;2022-07-04T10:51:53;4.78;;;1.70;;
70433;SDS011;57876;47.792;12.960;2022-07-04T10:54:33;4.70;;;1.88;;
70433;SDS011;57876;47.792;12.960;2022-07-04T10:57:31;4.63;;;1.73;;
70433;SDS011;57876;47.792;12.960;2022-07-04T11:04:57;4.80;;;1.90;;
70433;SDS011;57876;47.792;12.960;2022-07-04T11:18:03;5.05;;;1.77;;
70433;SDS011;57876;47.792;12.960;2022-07-04T11:20:36;4.60;;;1.77;;
70433;SDS011;57876;47.792;12.960;2022-07-04T11:25:34;4.45;;;1.65;;
70433;SDS011;57876;47.792;12.960;2022-07-04T11:30:49;4.93;;;1.70;;
70433;SDS011;57876;47.792;12.960;2022-07-04T11:33:16;5.15;;;1.60;;
70433;SDS011;57876;47.792;12.960;2022-07-04T11:35:42;4.60;;;1.50;;
70433;SDS011;57876;47.792;12.960;2022-07-04T11:38:06;4.78;;;1.70;;
70433;SDS011;57876;47.792;12.960;2022-07-04T11:40:44;4.90;;;1.70;;
70433;SDS011;57876;47.792;12.960;2022-07-04T11:43:27;4.40;;;1.50;;
70433;SDS011;57876;47.792;12.960;2022-07-04T11:46:11;4.53;;;1.55;;
70433;SDS011;57876;47.792;12.960;2022-07-04T11:48:38;5.30;;;1.80;;
70433;SDS011;57876;47.792;12.960;2022-07-04T11:51:03;5.10;;;1.60;;
70433;SDS011;57876;47.792;12.960;2022-07-04T11:53:27;4.73;;;1.70;;
70433;SDS011;57876;47.792;12.960;2022-07-04T11:56:00;4.90;;;1.77;;
70433;SDS011;57876;47.792;12.960;2022-07-04T11:58:25;5.80;;;1.60;;
70433;SDS011;57876;47.792;12.960;2022-07-04T12:00:49;4.93;;;1.90;;
70433;SDS011;57876;47.792;12.960;2022-07-04T12:03:14;4.67;;;1.57;;
70433;SDS011;57876;47.792;12.960;2022-07-04T12:05:38;5.40;;;1.60;;
70433;SDS011;57876;47.792;12.960;2022-07-04T12:08:03;4.80;;;1.60;;
70433;SDS011;57876;47.792;12.960;2022-07-04T12:10:29;4.93;;;1.60;;
70433;SDS011;57876;47.792;12.960;2022-07-04T12:12:55;6.20;;;1.80;;
70433;SDS011;57876;47.792;12.960;2022-07-04T12:15:24;6.03;;;1.80;;
70433;SDS011;57876;47.792;12.960;2022-07-04T12:17:59;4.45;;;1.63;;
70433;SDS011;57876;47.792;12.960;2022-07-04T12:20:24;4.80;;;1.70;;
70433;SDS011;57876;47.792;12.960;2022-07-04T12:22:50;5.55;;;1.85;;
70433;SDS011;57876;47.792;12.960;2022-07-04T12:27:59;4.80;;;1.80;;
70433;SDS011;57876;47.792;12.960;2022-07-04T12:30:29;5.18;;;1.63;;
70433;SDS011;57876;47.792;12.960;2022-07-04T12:33:01;4.60;;;1.70;;
70433;SDS011;57876;47.792;12.960;2022-07-04T12:38:04;4.50;;;1.50;;
70433;SDS011;57876;47.792;12.960;2022-07-04T12:40:32;4.55;;;1.60;;
70433;SDS011;57876;47.792;12.960;2022-07-04T12:42:59;4.88;;;1.60;;
70433;SDS011;57876;47.792;12.960;2022-07-04T12:45:23;5.47;;;1.50;;
70433;SDS011;57876;47.792;12.960;2022-07-04T12:47:48;5.25;;;1.88;;
70433;SDS011;57876;47.792;12.960;2022-07-04T12:50:13;4.80;;;1.37;;
70433;SDS011;57876;47.792;12.960;2022-07-04T12:52:38;4.68;;;1.70;;
70433;SDS011;57876;47.792;12.960;2022-07-04T12:55:04;4.60;;;1.60;;
70433;SDS011;57876;47.792;12.960;2022-07-04T12:57:31;4.75;;;1.60;;
70433;SDS011;57876;47.792;12.960;2022-07-04T12:59:55;4.50;;;1.40;;
70433;SDS011;57876;47.792;12.960;2022-07-04T13:02:19;4.82;;;1.50;;
70433;SDS011;57876;47.792;12.960;2022-07-04T13:04:44;4.67;;;1.40;;
70433;SDS011;57876;47.792;12.960;2022-07-04T13:07:12;4.70;;;1.53;;
70433;SDS011;57876;47.792;12.960;2022-07-04T13:09:38;4.57;;;1.60;;
70433;SDS011;57876;47.792;12.960;2022-07-04T13:12:03;4.50;;;1.53;;
70433;SDS011;57876;47.792;12.960;2022-07-04T13:14:46;4.70;;;1.60;;
70433;SDS011;57876;47.792;12.960;2022-07-04T13:17:10;4.20;;;1.30;;
70433;SDS011;57876;47.792;12.960;2022-07-04T13:19:35;4.47;;;1.60;;
70433;SDS011;57876;47.792;12.960;2022-07-04T13:21:59;4.50;;;1.33;;
70433;SDS011;57876;47.792;12.960;2022-07-04T13:24:23;4.50;;;1.30;;
70433;SDS011;57876;47.792;12.960;2022-07-04T13:26:48;4.20;;;1.27;;
70433;SDS011;57876;47.792;12.960;2022-07-04T13:29:12;4.50;;;1.40;;
70433;SDS011;57876;47.792;12.960;2022-07-04T13:31:37;4.43;;;1.50;;
70433;SDS011;57876;47.792;12.960;2022-07-04T13:34:01;4.70;;;1.50;;
70433;SDS011;57876;47.792;12.960;2022-07-04T13:36:26;4.20;;;1.30;;
70433;SDS011;57876;47.792;12.960;2022-07-04T13:38:50;4.50;;;1.50;;
70433;SDS011;57876;47.792;12.960;2022-07-04T13:41:15;4.70;;;1.60;;
70433;SDS011;57876;47.792;12.960;2022-07-04T13:43:39;4.90;;;1.50;;
70433;SDS011;57876;47.792;12.960;2022-07-04T13:46:04;5.03;;;1.60;;
70433;SDS011;57876;47.792;12.960;2022-07-04T13:48:28;4.50;;;1.60;;
70433;SDS011;57876;47.792;12.960;2022-07-04T13:50:53;4.80;;;1.70;;
70433;SDS011;57876;47.792;12.960;2022-07-04T13:53:17;4.70;;;1.50;;
70433;SDS011;57876;47.792;12.960;2022-07-04T13:55:42;4.70;;;1.60;;
70433;SDS011;57876;47.792;12.960;2022-07-04T13:58:08;4.87;;;1.83;;
70433;SDS011;57876;47.792;12.960;2022-07-04T14:00:32;4.38;;;1.42;;
70433;SDS011;57876;47.792;12.960;2022-07-04T14:02:58;4.70;;;1.50;;
70433;SDS011;57876;47.792;12.960;2022-07-04T14:05:22;4.50;;;1.60;;
70433;SDS011;57876;47.792;12.960;2022-07-04T14:07:48;5.33;;;1.40;;
70433;SDS011;57876;47.792;12.960;2022-07-04T14:10:12;5.63;;;1.47;;
70433;SDS011;57876;47.792;12.960;2022-07-04T14:12:37;4.47;;;1.50;;
70433;SDS011;57876;47.792;12.960;2022-07-04T14:15:01;4.47;;;1.47;;
70433;SDS011;57876;47.792;12.960;2022-07-04T14:17:27;5.15;;;1.77;;
70433;SDS011;57876;47.792;12.960;2022-07-04T14:19:51;4.40;;;1.50;;
70433;SDS011;57876;47.792;12.960;2022-07-04T14:22:15;4.50;;;1.60;;
70433;SDS011;57876;47.792;12.960;2022-07-04T14:24:40;4.50;;;1.50;;
70433;SDS011;57876;47.792;12.960;2022-07-04T14:27:04;4.80;;;1.70;;
70433;SDS011;57876;47.792;12.960;2022-07-04T14:29:29;4.75;;;1.58;;
70433;SDS011;57876;47.792;12.960;2022-07-04T14:31:53;4.17;;;1.27;;
70433;SDS011;57876;47.792;12.960;2022-07-04T14:34:18;4.70;;;1.77;;
70433;SDS011;57876;47.792;12.960;2022-07-04T14:36:42;4.50;;;1.60;;
70433;SDS011;57876;47.792;12.960;2022-07-04T14:39:07;4.67;;;1.60;;
70433;SDS011;57876;47.792;12.960;2022-07-04T14:41:31;5.23;;;1.50;;
70433;SDS011;57876;47.792;12.960;2022-07-04T14:43:56;4.78;;;1.70;;
70433;SDS011;57876;47.792;12.960;2022-07-04T14:46:21;4.77;;;1.60;;
70433;SDS011;57876;47.792;12.960;2022-07-04T14:48:45;4.90;;;1.60;;
70433;SDS011;57876;47.792;12.960;2022-07-04T14:51:09;5.30;;;1.50;;
70433;SDS011;57876;47.792;12.960;2022-07-04T14:53:34;4.70;;;1.60;;